sensor_id;sensor_type;location;lat;lon;timestamp;pressure;altitude;pressure_sealevel;temperature;humidity
19150;BME280;9707;49.158;8.632;2022-10-16T00:01:45;100163.88;;;23.79;49.18
19150;BME280;9707;49.158;8.632;2022-10-16T00:04:10;100165.72;;;23.79;49.05
19150;BME280;9707;49.158;8.632;2022-10-16T00:06:36;100167.44;;;23.80;49.19
19150;BME280;9707;49.158;8.632;2022-10-16T00:09:01;100172.88;;;23.80;49.18
19150;BME280;9707;49.158;8.632;2022-10-16T00:11:29;100170.16;;;23.80;49.14
19150;BME280;9707;49.158;8.632;2022-10-16T00:13:57;100170.16;;;23.80;49.22
19150;BME280;9707;49.158;8.632;2022-10-16T00:16:23;100177.47;;;23.79;49.08
19150;BME280;9707;49.158;8.632;2022-10-16T00:18:49;100178.50;;;23.78;49.35
19150;BME280;9707;49.158;8.632;2022-10-16T00:21:20;100177.63;;;23.78;49.22
19150;BME280;9707;49.158;8.632;2022-10-16T00:23:46;100177.63;;;23.78;49.40
19150;BME280;9707;49.158;8.632;2022-10-16T00:26:14;100177.63;;;23.78;49.29
19150;BME280;9707;49.158;8.632;2022-10-16T00:28:40;100178.63;;;23.77;49.34
19150;BME280;9707;49.158;8.632;2022-10-16T00:31:08;100173.34;;;23.75;49.44
19150;BME280;9707;49.158;8.632;2022-10-16T00:33:34;100164.31;;;23.75;49.25
19150;BME280;9707;49.158;8.632;2022-10-16T00:36:01;100161.59;;;23.75;49.28
19150;BME280;9707;49.158;8.632;2022-10-16T00:38:27;100156.16;;;23.75;49.20
19150;BME280;9707;49.158;8.632;2022-10-16T00:40:52;100160.91;;;23.73;49.22
19150;BME280;9707;49.158;8.632;2022-10-16T00:46:11;100177.91;;;23.75;49.38
19150;BME280;9707;49.158;8.632;2022-10-16T00:48:38;100183.34;;;23.75;49.39
19150;BME280;9707;49.158;8.632;2022-10-16T00:51:06;100172.47;;;23.75;49.42
19150;BME280;9707;49.158;8.632;2022-10-16T00:53:32;100165.31;;;23.74;49.54
19150;BME280;9707;49.158;8.632;2022-10-16T00:55:58;100161.59;;;23.75;49.51
19150;BME280;9707;49.158;8.632;2022-10-16T00:58:23;100163.47;;;23.74;49.47
19150;BME280;9707;49.158;8.632;2022-10-16T01:00:49;100168.78;;;23.76;49.33
19150;BME280;9707;49.158;8.632;2022-10-16T01:03:28;100173.34;;;23.75;49.29
19150;BME280;9707;49.158;8.632;2022-10-16T01:06:04;100182.50;;;23.74;49.58
19150;BME280;9707;49.158;8.632;2022-10-16T01:11:27;100187.22;;;23.72;49.58
19150;BME280;9707;49.158;8.632;2022-10-16T01:13:59;100190.81;;;23.73;49.45
19150;BME280;9707;49.158;8.632;2022-10-16T01:16:41;100193.38;;;23.74;49.86
19150;BME280;9707;49.158;8.632;2022-10-16T01:19:23;100201.69;;;23.73;49.62
19150;BME280;9707;49.158;8.632;2022-10-16T01:21:53;100208.13;;;23.72;49.53
19150;BME280;9707;49.158;8.632;2022-10-16T01:27:19;100213.72;;;23.70;49.79
19150;BME280;9707;49.158;8.632;2022-10-16T01:30:13;100189.25;;;23.70;49.60
19150;BME280;9707;49.158;8.632;2022-10-16T01:32:47;100198.28;;;23.71;49.58
19150;BME280;9707;49.158;8.632;2022-10-16T01:37:52;100199.97;;;23.72;49.75
19150;BME280;9707;49.158;8.632;2022-10-16T01:40:20;100181.94;;;23.71;49.64
19150;BME280;9707;49.158;8.632;2022-10-16T01:42:53;100182.66;;;23.73;49.72
19150;BME280;9707;49.158;8.632;2022-10-16T01:45:21;100186.25;;;23.73;49.57
19150;BME280;9707;49.158;8.632;2022-10-16T01:47:48;100189.94;;;23.72;49.57
19150;BME280;9707;49.158;8.632;2022-10-16T01:50:16;100192.66;;;23.72;49.57
19150;BME280;9707;49.158;8.632;2022-10-16T01:52:45;100180.94;;;23.72;49.67
19150;BME280;9707;49.158;8.632;2022-10-16T01:55:14;100176.34;;;23.72;49.69
19150;BME280;9707;49.158;8.632;2022-10-16T01:57:44;100184.34;;;23.74;49.63
19150;BME280;9707;49.158;8.632;2022-10-16T02:00:13;100187.06;;;23.74;49.53
19150;BME280;9707;49.158;8.632;2022-10-16T02:02:45;100178.91;;;23.74;49.65
19150;BME280;9707;49.158;8.632;2022-10-16T02:05:21;100192.53;;;23.74;49.63
19150;BME280;9707;49.158;8.632;2022-10-16T02:07:49;100185.38;;;23.73;49.60
19150;BME280;9707;49.158;8.632;2022-10-16T02:10:14;100191.69;;;23.73;49.70
19150;BME280;9707;49.158;8.632;2022-10-16T02:12:43;100187.06;;;23.74;49.68
19150;BME280;9707;49.158;8.632;2022-10-16T02:15:10;100181.78;;;23.72;49.57
19150;BME280;9707;49.158;8.632;2022-10-16T02:17:36;100185.38;;;23.73;49.65
19150;BME280;9707;49.158;8.632;2022-10-16T02:20:01;100190.13;;;23.71;49.57
19150;BME280;9707;49.158;8.632;2022-10-16T02:22:30;100186.38;;;23.72;49.54
19150;BME280;9707;49.158;8.632;2022-10-16T02:25:01;100188.22;;;23.71;49.57
19150;BME280;9707;49.158;8.632;2022-10-16T02:30:46;100185.66;;;23.70;49.41
19150;BME280;9707;49.158;8.632;2022-10-16T02:33:15;100192.09;;;23.69;49.47
19150;BME280;9707;49.158;8.632;2022-10-16T02:35:43;100199.41;;;23.68;49.60
19150;BME280;9707;49.158;8.632;2022-10-16T02:38:10;100197.53;;;23.69;49.43
19150;BME280;9707;49.158;8.632;2022-10-16T02:40:36;100196.53;;;23.70;49.47
19150;BME280;9707;49.158;8.632;2022-10-16T02:43:04;100188.38;;;23.70;49.41
19150;BME280;9707;49.158;8.632;2022-10-16T02:45:29;100193.81;;;23.70;49.37
19150;BME280;9707;49.158;8.632;2022-10-16T02:47:55;100201.97;;;23.70;49.29
19150;BME280;9707;49.158;8.632;2022-10-16T02:50:20;100199.25;;;23.70;49.22
19150;BME280;9707;49.158;8.632;2022-10-16T02:52:45;100198.41;;;23.69;49.37
19150;BME280;9707;49.158;8.632;2022-10-16T02:55:11;100204.00;;;23.68;49.24
19150;BME280;9707;49.158;8.632;2022-10-16T02:57:36;100212.16;;;23.68;49.13
19150;BME280;9707;49.158;8.632;2022-10-16T03:00:04;100209.44;;;23.68;49.18
19150;BME280;9707;49.158;8.632;2022-10-16T03:02:29;100209.44;;;23.68;49.43
19150;BME280;9707;49.158;8.632;2022-10-16T03:04:54;100220.31;;;23.68;49.31
19150;BME280;9707;49.158;8.632;2022-10-16T03:07:20;100225.75;;;23.68;49.38
19150;BME280;9707;49.158;8.632;2022-10-16T03:09:45;100223.03;;;23.68;49.45
19150;BME280;9707;49.158;8.632;2022-10-16T03:12:10;100222.31;;;23.66;49.43
19150;BME280;9707;49.158;8.632;2022-10-16T03:14:37;100223.16;;;23.66;49.41
19150;BME280;9707;49.158;8.632;2022-10-16T03:17:02;100226.91;;;23.65;49.42
19150;BME280;9707;49.158;8.632;2022-10-16T03:19:27;100222.31;;;23.66;49.34
19150;BME280;9707;49.158;8.632;2022-10-16T03:21:52;100226.03;;;23.65;49.56
19150;BME280;9707;49.158;8.632;2022-10-16T03:24:18;100226.03;;;23.65;49.42
19150;BME280;9707;49.158;8.632;2022-10-16T03:26:43;100222.47;;;23.64;49.52
19150;BME280;9707;49.158;8.632;2022-10-16T03:29:08;100226.03;;;23.65;49.54
19150;BME280;9707;49.158;8.632;2022-10-16T03:31:34;100218.03;;;23.63;49.43
19150;BME280;9707;49.158;8.632;2022-10-16T03:33:59;100218.03;;;23.63;49.42
19150;BME280;9707;49.158;8.632;2022-10-16T03:36:24;100214.44;;;23.63;49.34
19150;BME280;9707;49.158;8.632;2022-10-16T03:38:50;100212.59;;;23.63;49.56
19150;BME280;9707;49.158;8.632;2022-10-16T03:41:15;100211.72;;;23.63;49.55
19150;BME280;9707;49.158;8.632;2022-10-16T03:43:40;100209.00;;;23.63;49.35
19150;BME280;9707;49.158;8.632;2022-10-16T03:46:06;100211.72;;;23.63;49.56
19150;BME280;9707;49.158;8.632;2022-10-16T03:48:31;100210.03;;;23.62;49.53
19150;BME280;9707;49.158;8.632;2022-10-16T03:50:57;100215.47;;;23.62;49.62
19150;BME280;9707;49.158;8.632;2022-10-16T03:53:23;100210.84;;;23.62;49.42
19150;BME280;9707;49.158;8.632;2022-10-16T03:55:48;100214.44;;;23.63;49.38
19150;BME280;9707;49.158;8.632;2022-10-16T03:58:13;100209.16;;;23.61;49.09
19150;BME280;9707;49.158;8.632;2022-10-16T04:00:45;100220.91;;;23.62;49.41
19150;BME280;9707;49.158;8.632;2022-10-16T04:03:12;100209.16;;;23.61;49.48
19150;BME280;9707;49.158;8.632;2022-10-16T04:05:38;100219.19;;;23.61;49.47
19150;BME280;9707;49.158;8.632;2022-10-16T04:08:03;100213.88;;;23.59;49.44
19150;BME280;9707;49.158;8.632;2022-10-16T04:10:29;100230.06;;;23.61;49.45
19150;BME280;9707;49.158;8.632;2022-10-16T04:12:54;100225.47;;;23.61;49.40
19150;BME280;9707;49.158;8.632;2022-10-16T04:15:21;100226.47;;;23.60;49.50
19150;BME280;9707;49.158;8.632;2022-10-16T04:17:47;100228.31;;;23.60;49.55
19150;BME280;9707;49.158;8.632;2022-10-16T04:20:12;100227.47;;;23.59;49.48
19150;BME280;9707;49.158;8.632;2022-10-16T04:22:37;100221.19;;;23.59;49.66
19150;BME280;9707;49.158;8.632;2022-10-16T04:25:03;100223.91;;;23.59;49.39
19150;BME280;9707;49.158;8.632;2022-10-16T04:27:28;100234.78;;;23.59;49.55
19150;BME280;9707;49.158;8.632;2022-10-16T04:29:56;100242.94;;;23.59;49.50
19150;BME280;9707;49.158;8.632;2022-10-16T04:32:21;100241.22;;;23.58;49.59
19150;BME280;9707;49.158;8.632;2022-10-16T04:34:46;100242.94;;;23.59;49.60
19150;BME280;9707;49.158;8.632;2022-10-16T04:37:12;100246.66;;;23.58;49.63
19150;BME280;9707;49.158;8.632;2022-10-16T04:39:37;100252.09;;;23.58;49.48
19150;BME280;9707;49.158;8.632;2022-10-16T04:42:02;100258.53;;;23.57;49.74
19150;BME280;9707;49.158;8.632;2022-10-16T04:44:28;100262.09;;;23.57;49.52
19150;BME280;9707;49.158;8.632;2022-10-16T04:46:53;100254.81;;;23.58;49.55
19150;BME280;9707;49.158;8.632;2022-10-16T04:49:18;100258.53;;;23.57;49.96
19150;BME280;9707;49.158;8.632;2022-10-16T04:51:43;100259.38;;;23.57;49.68
19150;BME280;9707;49.158;8.632;2022-10-16T04:54:09;100258.53;;;23.57;49.61
19150;BME280;9707;49.158;8.632;2022-10-16T04:56:35;100256.84;;;23.56;49.65
19150;BME280;9707;49.158;8.632;2022-10-16T04:59:07;100252.22;;;23.56;49.52
19150;BME280;9707;49.158;8.632;2022-10-16T05:01:33;100259.56;;;23.56;49.46
19150;BME280;9707;49.158;8.632;2022-10-16T05:03:58;100249.50;;;23.56;49.54
19150;BME280;9707;49.158;8.632;2022-10-16T05:06:23;100255.81;;;23.57;49.53
19150;BME280;9707;49.158;8.632;2022-10-16T05:08:48;100259.38;;;23.57;49.48
19150;BME280;9707;49.158;8.632;2022-10-16T05:11:14;100261.25;;;23.57;49.52
19150;BME280;9707;49.158;8.632;2022-10-16T05:13:39;100252.09;;;23.58;49.54
19150;BME280;9707;49.158;8.632;2022-10-16T05:16:04;100244.06;;;23.56;49.38
19150;BME280;9707;49.158;8.632;2022-10-16T05:18:30;100241.22;;;23.58;49.40
19150;BME280;9707;49.158;8.632;2022-10-16T05:20:55;100251.22;;;23.57;49.56
19150;BME280;9707;49.158;8.632;2022-10-16T05:23:20;100256.66;;;23.57;49.26
19150;BME280;9707;49.158;8.632;2022-10-16T05:25:55;100263.09;;;23.56;49.48
19150;BME280;9707;49.158;8.632;2022-10-16T05:28:21;100255.81;;;23.57;49.41
19150;BME280;9707;49.158;8.632;2022-10-16T05:30:46;100265.00;;;23.56;49.49
19150;BME280;9707;49.158;8.632;2022-10-16T05:33:11;100267.72;;;23.56;49.25
19150;BME280;9707;49.158;8.632;2022-10-16T05:35:37;100266.69;;;23.57;49.41
19150;BME280;9707;49.158;8.632;2022-10-16T05:38:02;100263.97;;;23.57;49.37
19150;BME280;9707;49.158;8.632;2022-10-16T05:40:27;100265.00;;;23.56;48.86
19150;BME280;9707;49.158;8.632;2022-10-16T05:42:56;100262.28;;;23.56;49.19
19150;BME280;9707;49.158;8.632;2022-10-16T05:45:21;100273.16;;;23.56;49.40
19150;BME280;9707;49.158;8.632;2022-10-16T05:47:46;100273.16;;;23.56;49.35
19150;BME280;9707;49.158;8.632;2022-10-16T05:50:12;100275.88;;;23.56;49.17
19150;BME280;9707;49.158;8.632;2022-10-16T05:52:37;100279.56;;;23.55;49.18
19150;BME280;9707;49.158;8.632;2022-10-16T05:55:03;100286.75;;;23.56;49.29
19150;BME280;9707;49.158;8.632;2022-10-16T05:57:28;100285.88;;;23.55;49.39
19150;BME280;9707;49.158;8.632;2022-10-16T05:59:54;100295.88;;;23.55;49.33
19150;BME280;9707;49.158;8.632;2022-10-16T06:02:19;100297.75;;;23.54;49.29
19150;BME280;9707;49.158;8.632;2022-10-16T06:04:44;100292.47;;;23.53;49.37
19150;BME280;9707;49.158;8.632;2022-10-16T06:07:09;100265.25;;;23.53;49.46
19150;BME280;9707;49.158;8.632;2022-10-16T06:09:35;100266.97;;;23.54;49.31
19150;BME280;9707;49.158;8.632;2022-10-16T06:12:00;100272.41;;;23.54;49.34
19150;BME280;9707;49.158;8.632;2022-10-16T06:14:25;100276.16;;;23.53;49.21
19150;BME280;9707;49.158;8.632;2022-10-16T06:16:51;100276.16;;;23.53;49.44
19150;BME280;9707;49.158;8.632;2022-10-16T06:19:16;100287.03;;;23.53;49.46
19150;BME280;9707;49.158;8.632;2022-10-16T06:21:42;100291.59;;;23.52;49.37
19150;BME280;9707;49.158;8.632;2022-10-16T06:24:08;100308.78;;;23.53;49.45
19150;BME280;9707;49.158;8.632;2022-10-16T06:26:34;100319.66;;;23.53;49.53
19150;BME280;9707;49.158;8.632;2022-10-16T06:28:59;100303.34;;;23.53;49.15
19150;BME280;9707;49.158;8.632;2022-10-16T06:31:26;100297.91;;;23.53;49.38
19150;BME280;9707;49.158;8.632;2022-10-16T06:33:53;100301.47;;;23.53;49.44
19150;BME280;9707;49.158;8.632;2022-10-16T06:36:19;100305.03;;;23.54;49.42
19150;BME280;9707;49.158;8.632;2022-10-16T06:38:45;100301.31;;;23.55;49.41
19150;BME280;9707;49.158;8.632;2022-10-16T06:41:15;100312.06;;;23.56;49.14
19150;BME280;9707;49.158;8.632;2022-10-16T06:43:41;100314.91;;;23.55;49.01
19150;BME280;9707;49.158;8.632;2022-10-16T06:46:09;100318.50;;;23.55;49.15
19150;BME280;9707;49.158;8.632;2022-10-16T06:48:36;100313.06;;;23.55;49.16
19150;BME280;9707;49.158;8.632;2022-10-16T06:51:03;100318.63;;;23.54;49.13
19150;BME280;9707;49.158;8.632;2022-10-16T06:53:33;100308.50;;;23.56;49.19
19150;BME280;9707;49.158;8.632;2022-10-16T06:56:16;100304.03;;;23.55;49.30
19150;BME280;9707;49.158;8.632;2022-10-16T06:58:42;100312.19;;;23.55;49.33
19150;BME280;9707;49.158;8.632;2022-10-16T07:01:09;100313.94;;;23.56;49.24
19150;BME280;9707;49.158;8.632;2022-10-16T07:03:40;100320.22;;;23.56;49.35
19150;BME280;9707;49.158;8.632;2022-10-16T07:06:07;100330.25;;;23.56;49.33
19150;BME280;9707;49.158;8.632;2022-10-16T07:08:35;100335.69;;;23.56;49.33
19150;BME280;9707;49.158;8.632;2022-10-16T07:11:05;100331.81;;;23.58;49.09
19150;BME280;9707;49.158;8.632;2022-10-16T07:13:35;100336.25;;;23.59;48.96
19150;BME280;9707;49.158;8.632;2022-10-16T07:16:12;100328.94;;;23.60;48.94
19150;BME280;9707;49.158;8.632;2022-10-16T07:18:38;100331.53;;;23.61;48.76
19150;BME280;9707;49.158;8.632;2022-10-16T07:21:06;100335.13;;;23.62;48.73
19150;BME280;9707;49.158;8.632;2022-10-16T07:23:33;100349.41;;;23.64;48.68
19150;BME280;9707;49.158;8.632;2022-10-16T07:25:59;100354.84;;;23.64;48.52
19150;BME280;9707;49.158;8.632;2022-10-16T07:28:24;100353.00;;;23.64;48.82
19150;BME280;9707;49.158;8.632;2022-10-16T07:30:50;100356.56;;;23.65;48.80
19150;BME280;9707;49.158;8.632;2022-10-16T07:33:15;100362.88;;;23.65;48.86
19150;BME280;9707;49.158;8.632;2022-10-16T07:35:50;100355.72;;;23.64;49.07
19150;BME280;9707;49.158;8.632;2022-10-16T07:38:16;100369.31;;;23.64;49.15
19150;BME280;9707;49.158;8.632;2022-10-16T07:40:42;100371.16;;;23.64;49.26
19150;BME280;9707;49.158;8.632;2022-10-16T07:43:07;100378.31;;;23.65;49.28
19150;BME280;9707;49.158;8.632;2022-10-16T07:45:32;100393.81;;;23.64;49.43
19150;BME280;9707;49.158;8.632;2022-10-16T07:47:57;100384.75;;;23.64;49.53
19150;BME280;9707;49.158;8.632;2022-10-16T07:50:23;100390.06;;;23.65;49.53
19150;BME280;9707;49.158;8.632;2022-10-16T07:52:48;100396.38;;;23.66;49.64
19150;BME280;9707;49.158;8.632;2022-10-16T07:55:13;100390.22;;;23.64;49.56
19150;BME280;9707;49.158;8.632;2022-10-16T07:57:39;100401.81;;;23.66;49.79
19150;BME280;9707;49.158;8.632;2022-10-16T08:00:04;100398.09;;;23.67;49.58
19150;BME280;9707;49.158;8.632;2022-10-16T08:02:31;100408.97;;;23.67;49.54
19150;BME280;9707;49.158;8.632;2022-10-16T08:04:56;100413.41;;;23.68;49.66
19150;BME280;9707;49.158;8.632;2022-10-16T08:07:21;100417.00;;;23.68;49.52
19150;BME280;9707;49.158;8.632;2022-10-16T08:09:49;100417.00;;;23.68;49.61
19150;BME280;9707;49.158;8.632;2022-10-16T08:12:15;100423.28;;;23.69;49.61
19150;BME280;9707;49.158;8.632;2022-10-16T08:14:40;100417.56;;;23.72;49.75
19150;BME280;9707;49.158;8.632;2022-10-16T08:17:05;100410.13;;;23.74;49.71
19150;BME280;9707;49.158;8.632;2022-10-16T08:19:30;100408.41;;;23.73;49.69
19150;BME280;9707;49.158;8.632;2022-10-16T08:21:59;100401.13;;;23.73;49.78
19150;BME280;9707;49.158;8.632;2022-10-16T08:24:24;100393.53;;;23.77;49.43
19150;BME280;9707;49.158;8.632;2022-10-16T08:26:49;100399.81;;;23.77;49.55
19150;BME280;9707;49.158;8.632;2022-10-16T08:29:15;100403.25;;;23.79;49.49
19150;BME280;9707;49.158;8.632;2022-10-16T08:31:40;100404.09;;;23.80;49.79
19150;BME280;9707;49.158;8.632;2022-10-16T08:34:05;100405.84;;;23.81;49.77
19150;BME280;9707;49.158;8.632;2022-10-16T08:36:30;100415.72;;;23.82;49.52
19150;BME280;9707;49.158;8.632;2022-10-16T08:38:56;100424.59;;;23.84;49.70
19150;BME280;9707;49.158;8.632;2022-10-16T08:41:32;100428.16;;;23.84;49.71
19150;BME280;9707;49.158;8.632;2022-10-16T08:47:26;100435.19;;;23.87;49.68
19150;BME280;9707;49.158;8.632;2022-10-16T08:49:57;100433.47;;;23.86;49.44
19150;BME280;9707;49.158;8.632;2022-10-16T08:52:25;100441.63;;;23.86;49.89
19150;BME280;9707;49.158;8.632;2022-10-16T08:54:55;100446.81;;;23.89;49.73
19150;BME280;9707;49.158;8.632;2022-10-16T08:57:22;100441.38;;;23.89;49.80
19150;BME280;9707;49.158;8.632;2022-10-16T08:59:49;100438.50;;;23.90;49.76
19150;BME280;9707;49.158;8.632;2022-10-16T09:12:27;100480.63;;;23.96;49.83
19150;BME280;9707;49.158;8.632;2022-10-16T09:15:02;100476.91;;;23.97;49.69
19150;BME280;9707;49.158;8.632;2022-10-16T09:17:36;100478.63;;;23.98;49.58
19150;BME280;9707;49.158;8.632;2022-10-16T09:20:34;100481.22;;;23.99;49.84
19150;BME280;9707;49.158;8.632;2022-10-16T09:25:28;100496.38;;;24.02;49.63
19150;BME280;9707;49.158;8.632;2022-10-16T09:27:54;100499.09;;;24.02;49.61
19150;BME280;9707;49.158;8.632;2022-10-16T09:30:21;100507.13;;;24.03;49.74
19150;BME280;9707;49.158;8.632;2022-10-16T09:32:51;100507.97;;;24.04;49.97
19150;BME280;9707;49.158;8.632;2022-10-16T09:35:20;100510.56;;;24.05;49.92
19150;BME280;9707;49.158;8.632;2022-10-16T09:37:49;100510.44;;;24.07;50.06
19150;BME280;9707;49.158;8.632;2022-10-16T09:40:32;100519.31;;;24.09;50.12
19150;BME280;9707;49.158;8.632;2022-10-16T09:45:43;100529.03;;;24.11;49.84
19150;BME280;9707;49.158;8.632;2022-10-16T09:48:19;100525.31;;;24.12;49.91
19150;BME280;9707;49.158;8.632;2022-10-16T09:50:55;100530.50;;;24.15;49.76
19150;BME280;9707;49.158;8.632;2022-10-16T09:53:20;100533.06;;;24.17;49.89
19150;BME280;9707;49.158;8.632;2022-10-16T09:55:53;100539.22;;;24.19;49.59
19150;BME280;9707;49.158;8.632;2022-10-16T09:58:22;100534.47;;;24.21;49.46
19150;BME280;9707;49.158;8.632;2022-10-16T10:00:49;100527.06;;;24.23;49.08
19150;BME280;9707;49.158;8.632;2022-10-16T10:03:33;100535.94;;;24.25;49.13
19150;BME280;9707;49.158;8.632;2022-10-16T10:06:06;100536.81;;;24.25;48.75
19150;BME280;9707;49.158;8.632;2022-10-16T10:08:32;100533.94;;;24.27;48.80
19150;BME280;9707;49.158;8.632;2022-10-16T10:10:57;100534.66;;;24.29;48.85
19150;BME280;9707;49.158;8.632;2022-10-16T10:13:24;100542.53;;;24.32;48.62
19150;BME280;9707;49.158;8.632;2022-10-16T10:15:50;100538.81;;;24.33;48.46
19150;BME280;9707;49.158;8.632;2022-10-16T10:18:18;100532.34;;;24.34;48.41
19150;BME280;9707;49.158;8.632;2022-10-16T10:20:45;100538.69;;;24.34;48.29
19150;BME280;9707;49.158;8.632;2022-10-16T10:23:21;100527.63;;;24.36;48.12
19150;BME280;9707;49.158;8.632;2022-10-16T10:25:56;100534.50;;;24.40;48.14
19150;BME280;9707;49.158;8.632;2022-10-16T10:28:50;100528.78;;;24.43;48.08
19150;BME280;9707;49.158;8.632;2022-10-16T10:31:46;100529.47;;;24.45;48.29
19150;BME280;9707;49.158;8.632;2022-10-16T10:34:35;100524.91;;;24.45;48.23
19150;BME280;9707;49.158;8.632;2022-10-16T10:37:28;100520.31;;;24.46;48.14
19150;BME280;9707;49.158;8.632;2022-10-16T10:42:59;100524.47;;;24.50;47.81
19150;BME280;9707;49.158;8.632;2022-10-16T10:45:28;100512.41;;;24.52;48.17
19150;BME280;9707;49.158;8.632;2022-10-16T10:51:08;100511.28;;;24.55;48.06
19150;BME280;9707;49.158;8.632;2022-10-16T10:54:00;100496.66;;;24.56;48.01
19150;BME280;9707;49.158;8.632;2022-10-16T11:02:00;100508.00;;;24.61;47.48
19150;BME280;9707;49.158;8.632;2022-10-16T11:07:28;100519.63;;;24.63;47.63
19150;BME280;9707;49.158;8.632;2022-10-16T11:10:02;100524.06;;;24.64;47.53
19150;BME280;9707;49.158;8.632;2022-10-16T11:12:35;100523.06;;;24.65;46.86
19150;BME280;9707;49.158;8.632;2022-10-16T11:18:06;100520.06;;;24.68;47.02
19150;BME280;9707;49.158;8.632;2022-10-16T11:20:47;100516.31;;;24.69;46.79
19150;BME280;9707;49.158;8.632;2022-10-16T11:23:30;100518.03;;;24.70;46.70
19150;BME280;9707;49.158;8.632;2022-10-16T11:26:00;100518.91;;;24.70;46.77
19150;BME280;9707;49.158;8.632;2022-10-16T11:28:45;100525.91;;;24.73;46.96
19150;BME280;9707;49.158;8.632;2022-10-16T11:31:19;100521.31;;;24.73;47.05
19150;BME280;9707;49.158;8.632;2022-10-16T11:33:55;100527.50;;;24.75;47.20
19150;BME280;9707;49.158;8.632;2022-10-16T11:39:20;100527.34;;;24.77;47.10
19150;BME280;9707;49.158;8.632;2022-10-16T11:41:50;100523.47;;;24.79;47.26
19150;BME280;9707;49.158;8.632;2022-10-16T11:49:58;100513.41;;;24.80;47.13
19150;BME280;9707;49.158;8.632;2022-10-16T11:52:30;100513.28;;;24.81;47.00
19150;BME280;9707;49.158;8.632;2022-10-16T11:57:33;100507.69;;;24.83;46.73
19150;BME280;9707;49.158;8.632;2022-10-16T12:00:08;100512.84;;;24.86;46.95
19150;BME280;9707;49.158;8.632;2022-10-16T12:03:00;100515.41;;;24.87;47.00
19150;BME280;9707;49.158;8.632;2022-10-16T12:08:18;100499.75;;;24.89;46.82
19150;BME280;9707;49.158;8.632;2022-10-16T12:10:46;100506.78;;;24.92;46.51
19150;BME280;9707;49.158;8.632;2022-10-16T12:13:34;100512.25;;;24.92;46.17
19150;BME280;9707;49.158;8.632;2022-10-16T12:16:26;100508.53;;;24.93;46.40
19150;BME280;9707;49.158;8.632;2022-10-16T12:19:11;100514.69;;;24.95;46.54
19150;BME280;9707;49.158;8.632;2022-10-16T12:21:37;100513.66;;;24.96;46.60
19150;BME280;9707;49.158;8.632;2022-10-16T12:24:03;100502.63;;;24.97;46.01
19150;BME280;9707;49.158;8.632;2022-10-16T12:26:32;100508.78;;;24.99;46.39
19150;BME280;9707;49.158;8.632;2022-10-16T12:29:35;100503.19;;;25.01;46.52
19150;BME280;9707;49.158;8.632;2022-10-16T12:32:18;100502.16;;;25.02;46.64
19150;BME280;9707;49.158;8.632;2022-10-16T12:34:47;100502.91;;;25.04;46.34
19150;BME280;9707;49.158;8.632;2022-10-16T12:37:14;100504.63;;;25.05;46.40
19150;BME280;9707;49.158;8.632;2022-10-16T12:39:43;100501.75;;;25.06;46.16
19150;BME280;9707;49.158;8.632;2022-10-16T12:44:53;100504.31;;;25.08;46.55
19150;BME280;9707;49.158;8.632;2022-10-16T12:47:24;100495.13;;;25.09;46.20
19150;BME280;9707;49.158;8.632;2022-10-16T12:49:59;100492.28;;;25.10;45.99
19150;BME280;9707;49.158;8.632;2022-10-16T12:52:36;100493.97;;;25.11;46.29
19150;BME280;9707;49.158;8.632;2022-10-16T12:55:04;100497.53;;;25.12;46.52
19150;BME280;9707;49.158;8.632;2022-10-16T12:57:58;100494.81;;;25.12;46.34
19150;BME280;9707;49.158;8.632;2022-10-16T13:00:55;100505.72;;;25.12;46.37
19150;BME280;9707;49.158;8.632;2022-10-16T13:14:08;100509.19;;;25.14;46.23
19150;BME280;9707;49.158;8.632;2022-10-16T13:17:06;100518.38;;;25.13;46.15
19150;BME280;9707;49.158;8.632;2022-10-16T13:28:11;100517.34;;;25.14;46.15
19150;BME280;9707;49.158;8.632;2022-10-16T13:30:51;100524.66;;;25.13;46.04
19150;BME280;9707;49.158;8.632;2022-10-16T13:33:37;100524.53;;;25.15;45.94
19150;BME280;9707;49.158;8.632;2022-10-16T13:36:05;100523.81;;;25.13;45.97
19150;BME280;9707;49.158;8.632;2022-10-16T13:38:33;100517.34;;;25.14;46.16
19150;BME280;9707;49.158;8.632;2022-10-16T13:43:44;100520.09;;;25.14;46.44
19150;BME280;9707;49.158;8.632;2022-10-16T13:46:15;100519.06;;;25.15;46.93
19150;BME280;9707;49.158;8.632;2022-10-16T13:48:41;100508.16;;;25.15;46.96
19150;BME280;9707;49.158;8.632;2022-10-16T13:51:18;100506.31;;;25.15;46.94
19150;BME280;9707;49.158;8.632;2022-10-16T13:53:44;100509.03;;;25.15;46.90
19150;BME280;9707;49.158;8.632;2022-10-16T13:56:15;100505.44;;;25.15;46.93
19150;BME280;9707;49.158;8.632;2022-10-16T13:58:41;100504.56;;;25.14;46.49
19150;BME280;9707;49.158;8.632;2022-10-16T14:01:22;100501.00;;;25.14;46.69
19150;BME280;9707;49.158;8.632;2022-10-16T14:03:50;100507.47;;;25.13;46.67
19150;BME280;9707;49.158;8.632;2022-10-16T14:06:19;100511.91;;;25.14;46.93
19150;BME280;9707;49.158;8.632;2022-10-16T14:08:51;100509.19;;;25.14;47.01
19150;BME280;9707;49.158;8.632;2022-10-16T14:11:24;100515.66;;;25.13;47.40
19150;BME280;9707;49.158;8.632;2022-10-16T14:13:51;100521.09;;;25.13;47.33
19150;BME280;9707;49.158;8.632;2022-10-16T14:16:20;100510.19;;;25.13;47.00
19150;BME280;9707;49.158;8.632;2022-10-16T14:18:55;100515.66;;;25.13;47.31
19150;BME280;9707;49.158;8.632;2022-10-16T14:21:21;100505.72;;;25.12;46.86
19150;BME280;9707;49.158;8.632;2022-10-16T14:23:46;100504.88;;;25.11;47.27
19150;BME280;9707;49.158;8.632;2022-10-16T14:26:14;100511.19;;;25.12;46.76
19150;BME280;9707;49.158;8.632;2022-10-16T14:28:41;100512.19;;;25.11;47.24
19150;BME280;9707;49.158;8.632;2022-10-16T14:31:27;100513.91;;;25.12;46.80
19150;BME280;9707;49.158;8.632;2022-10-16T14:33:53;100518.66;;;25.10;46.99
19150;BME280;9707;49.158;8.632;2022-10-16T14:36:20;100506.88;;;25.09;47.53
19150;BME280;9707;49.158;8.632;2022-10-16T14:39:14;100511.50;;;25.09;47.56
19150;BME280;9707;49.158;8.632;2022-10-16T14:41:48;100514.38;;;25.07;47.65